sensor_id;sensor_type;location;lat;lon;timestamp;pressure;altitude;pressure_sealevel;temperature;humidity
48810;BME280;40070;47.322;18.784;2022-08-02T00:01:36;1001.70;;;22.93;54.44
48810;BME280;40070;47.322;18.784;2022-08-02T00:03:37;1001.65;;;23.10;53.89
48810;BME280;40070;47.322;18.784;2022-08-02T00:05:38;1001.70;;;23.13;53.65
48810;BME280;40070;47.322;18.784;2022-08-02T00:07:39;1001.64;;;23.10;53.75
48810;BME280;40070;47.322;18.784;2022-08-02T00:09:40;1001.61;;;23.19;53.32
48810;BME280;40070;47.322;18.784;2022-08-02T00:11:41;1001.59;;;23.14;53.41
48810;BME280;40070;47.322;18.784;2022-08-02T00:13:42;1001.55;;;23.10;53.49
48810;BME280;40070;47.322;18.784;2022-08-02T00:15:43;1001.55;;;23.15;53.37
48810;BME280;40070;47.322;18.784;2022-08-02T00:17:44;1001.58;;;23.01;54.03
48810;BME280;40070;47.322;18.784;2022-08-02T00:19:45;1001.56;;;23.09;53.63
48810;BME280;40070;47.322;18.784;2022-08-02T00:21:46;1001.57;;;23.06;53.68
48810;BME280;40070;47.322;18.784;2022-08-02T00:23:48;1001.60;;;23.02;53.74
48810;BME280;40070;47.322;18.784;2022-08-02T00:25:49;1001.60;;;23.04;53.74
48810;BME280;40070;47.322;18.784;2022-08-02T00:27:50;1001.58;;;23.12;53.44
48810;BME280;40070;47.322;18.784;2022-08-02T00:29:50;1001.54;;;23.01;53.75
48810;BME280;40070;47.322;18.784;2022-08-02T00:31:51;1001.58;;;23.04;53.62
48810;BME280;40070;47.322;18.784;2022-08-02T00:33:52;1001.55;;;22.99;53.97
48810;BME280;40070;47.322;18.784;2022-08-02T00:35:53;1001.52;;;22.94;54.05
48810;BME280;40070;47.322;18.784;2022-08-02T00:37:54;1001.57;;;22.86;54.33
48810;BME280;40070;47.322;18.784;2022-08-02T00:39:55;1001.57;;;22.87;54.30
48810;BME280;40070;47.322;18.784;2022-08-02T00:41:56;1001.57;;;22.80;54.54
48810;BME280;40070;47.322;18.784;2022-08-02T00:43:57;1001.57;;;22.70;54.78
48810;BME280;40070;47.322;18.784;2022-08-02T00:45:58;1001.58;;;22.67;54.91
48810;BME280;40070;47.322;18.784;2022-08-02T00:47:59;1001.69;;;22.51;55.53
48810;BME280;40070;47.322;18.784;2022-08-02T00:50:00;1001.75;;;22.51;55.42
48810;BME280;40070;47.322;18.784;2022-08-02T00:52:01;1001.79;;;22.58;55.29
48810;BME280;40070;47.322;18.784;2022-08-02T00:54:03;1001.77;;;22.51;55.26
48810;BME280;40070;47.322;18.784;2022-08-02T00:56:04;1001.76;;;22.36;55.85
48810;BME280;40070;47.322;18.784;2022-08-02T00:58:05;1001.74;;;22.35;55.86
48810;BME280;40070;47.322;18.784;2022-08-02T01:00:06;1001.72;;;22.37;55.70
48810;BME280;40070;47.322;18.784;2022-08-02T01:02:08;1001.69;;;22.47;55.37
48810;BME280;40070;47.322;18.784;2022-08-02T01:04:10;1001.68;;;22.40;55.53
48810;BME280;40070;47.322;18.784;2022-08-02T01:06:11;1001.75;;;22.16;56.19
48810;BME280;40070;47.322;18.784;2022-08-02T01:08:12;1001.77;;;22.19;56.15
48810;BME280;40070;47.322;18.784;2022-08-02T01:10:12;1001.81;;;22.32;55.86
48810;BME280;40070;47.322;18.784;2022-08-02T01:12:14;1001.84;;;22.36;55.92
48810;BME280;40070;47.322;18.784;2022-08-02T01:14:15;1001.86;;;22.23;56.48
48810;BME280;40070;47.322;18.784;2022-08-02T01:16:18;1001.84;;;22.34;56.16
48810;BME280;40070;47.322;18.784;2022-08-02T01:18:23;1001.94;;;22.29;56.17
48810;BME280;40070;47.322;18.784;2022-08-02T01:27:33;1001.89;;;22.09;56.64
48810;BME280;40070;47.322;18.784;2022-08-02T01:29:38;1001.90;;;22.08;56.75
48810;BME280;40070;47.322;18.784;2022-08-02T01:31:41;1001.90;;;22.04;56.92
48810;BME280;40070;47.322;18.784;2022-08-02T01:33:46;1001.92;;;21.95;57.17
48810;BME280;40070;47.322;18.784;2022-08-02T01:35:51;1001.95;;;21.91;57.40
48810;BME280;40070;47.322;18.784;2022-08-02T01:37:57;1001.93;;;21.55;58.43
48810;BME280;40070;47.322;18.784;2022-08-02T01:40:03;1002.01;;;21.67;58.38
48810;BME280;40070;47.322;18.784;2022-08-02T01:42:04;1001.96;;;21.61;58.32
48810;BME280;40070;47.322;18.784;2022-08-02T01:44:06;1002.01;;;21.96;57.31
48810;BME280;40070;47.322;18.784;2022-08-02T01:46:07;1002.02;;;21.79;57.66
48810;BME280;40070;47.322;18.784;2022-08-02T01:48:09;1002.06;;;21.71;57.92
48810;BME280;40070;47.322;18.784;2022-08-02T01:50:12;1002.04;;;21.69;58.05
48810;BME280;40070;47.322;18.784;2022-08-02T01:52:13;1002.00;;;21.68;58.11
48810;BME280;40070;47.322;18.784;2022-08-02T01:54:16;1001.97;;;21.72;57.88
48810;BME280;40070;47.322;18.784;2022-08-02T01:56:17;1001.96;;;21.82;57.51
48810;BME280;40070;47.322;18.784;2022-08-02T01:58:19;1001.98;;;21.82;57.38
48810;BME280;40070;47.322;18.784;2022-08-02T02:00:26;1002.06;;;21.82;57.47
48810;BME280;40070;47.322;18.784;2022-08-02T02:02:28;1002.07;;;21.88;57.43
48810;BME280;40070;47.322;18.784;2022-08-02T02:04:30;1002.10;;;21.97;56.99
48810;BME280;40070;47.322;18.784;2022-08-02T02:06:31;1002.03;;;21.88;56.88
48810;BME280;40070;47.322;18.784;2022-08-02T02:08:35;1002.08;;;21.62;57.24
48810;BME280;40070;47.322;18.784;2022-08-02T02:10:37;1002.04;;;21.46;57.56
48810;BME280;40070;47.322;18.784;2022-08-02T02:12:40;1002.05;;;21.32;57.96
48810;BME280;40070;47.322;18.784;2022-08-02T02:14:42;1002.07;;;21.30;58.18
48810;BME280;40070;47.322;18.784;2022-08-02T02:16:44;1002.07;;;21.32;58.09
48810;BME280;40070;47.322;18.784;2022-08-02T02:18:46;1002.13;;;21.30;58.18
48810;BME280;40070;47.322;18.784;2022-08-02T02:20:48;1002.14;;;21.31;58.16
48810;BME280;40070;47.322;18.784;2022-08-02T02:22:49;1002.13;;;21.13;58.80
48810;BME280;40070;47.322;18.784;2022-08-02T02:24:51;1002.12;;;21.13;58.71
48810;BME280;40070;47.322;18.784;2022-08-02T02:26:52;1002.09;;;21.08;58.89
48810;BME280;40070;47.322;18.784;2022-08-02T02:28:53;1002.10;;;20.98;59.31
48810;BME280;40070;47.322;18.784;2022-08-02T02:31:17;1002.09;;;20.90;59.79
48810;BME280;40070;47.322;18.784;2022-08-02T02:33:08;1002.10;;;20.90;59.77
48810;BME280;40070;47.322;18.784;2022-08-02T02:35:10;1002.13;;;20.92;59.83
48810;BME280;40070;47.322;18.784;2022-08-02T02:37:16;1002.11;;;20.98;59.59
48810;BME280;40070;47.322;18.784;2022-08-02T02:39:21;1002.12;;;20.92;59.80
48810;BME280;40070;47.322;18.784;2022-08-02T02:41:23;1002.08;;;21.05;59.42
48810;BME280;40070;47.322;18.784;2022-08-02T02:43:24;1002.09;;;20.97;59.94
48810;BME280;40070;47.322;18.784;2022-08-02T02:45:27;1002.06;;;21.10;59.41
48810;BME280;40070;47.322;18.784;2022-08-02T02:47:30;1001.97;;;21.10;58.91
48810;BME280;40070;47.322;18.784;2022-08-02T02:49:32;1002.01;;;20.98;59.52
48810;BME280;40070;47.322;18.784;2022-08-02T02:51:34;1002.00;;;20.83;60.07
48810;BME280;40070;47.322;18.784;2022-08-02T02:53:36;1001.94;;;20.86;59.97
48810;BME280;40070;47.322;18.784;2022-08-02T02:55:37;1001.95;;;20.89;59.96
48810;BME280;40070;47.322;18.784;2022-08-02T02:57:39;1001.95;;;20.82;60.23
48810;BME280;40070;47.322;18.784;2022-08-02T02:59:40;1001.97;;;21.02;59.52
48810;BME280;40070;47.322;18.784;2022-08-02T03:01:41;1002.03;;;20.99;59.57
48810;BME280;40070;47.322;18.784;2022-08-02T03:03:42;1002.03;;;20.87;60.12
48810;BME280;40070;47.322;18.784;2022-08-02T03:05:44;1002.01;;;20.94;59.86
48810;BME280;40070;47.322;18.784;2022-08-02T03:07:44;1002.03;;;20.94;59.78
48810;BME280;40070;47.322;18.784;2022-08-02T03:09:45;1002.06;;;20.90;59.97
48810;BME280;40070;47.322;18.784;2022-08-02T03:11:46;1002.03;;;20.93;59.75
48810;BME280;40070;47.322;18.784;2022-08-02T03:13:48;1002.02;;;20.96;59.70
48810;BME280;40070;47.322;18.784;2022-08-02T03:15:50;1001.94;;;21.10;59.19
48810;BME280;40070;47.322;18.784;2022-08-02T03:17:51;1001.93;;;21.07;59.23
48810;BME280;40070;47.322;18.784;2022-08-02T03:19:52;1001.95;;;20.93;59.59
48810;BME280;40070;47.322;18.784;2022-08-02T03:21:53;1001.96;;;20.94;59.75
48810;BME280;40070;47.322;18.784;2022-08-02T03:23:54;1001.96;;;20.69;60.52
48810;BME280;40070;47.322;18.784;2022-08-02T03:25:55;1001.96;;;20.68;60.70
48810;BME280;40070;47.322;18.784;2022-08-02T03:27:56;1001.92;;;20.74;60.37
48810;BME280;40070;47.322;18.784;2022-08-02T03:29:57;1001.96;;;20.86;59.91
48810;BME280;40070;47.322;18.784;2022-08-02T03:31:58;1001.96;;;20.81;60.30
48810;BME280;40070;47.322;18.784;2022-08-02T03:33:59;1002.04;;;20.72;60.73
48810;BME280;40070;47.322;18.784;2022-08-02T03:36:03;1002.11;;;20.48;61.58
48810;BME280;40070;47.322;18.784;2022-08-02T03:38:05;1002.13;;;20.36;62.17
48810;BME280;40070;47.322;18.784;2022-08-02T03:40:07;1002.15;;;20.48;61.94
48810;BME280;40070;47.322;18.784;2022-08-02T03:42:09;1002.11;;;20.68;61.29
48810;BME280;40070;47.322;18.784;2022-08-02T03:44:10;1002.04;;;20.76;60.78
48810;BME280;40070;47.322;18.784;2022-08-02T03:46:12;1002.07;;;20.93;60.37
48810;BME280;40070;47.322;18.784;2022-08-02T03:48:14;1002.12;;;20.87;60.56
48810;BME280;40070;47.322;18.784;2022-08-02T03:50:16;1002.16;;;20.87;60.56
48810;BME280;40070;47.322;18.784;2022-08-02T03:52:17;1002.22;;;20.82;60.88
48810;BME280;40070;47.322;18.784;2022-08-02T03:54:19;1002.24;;;20.88;60.89
48810;BME280;40070;47.322;18.784;2022-08-02T03:56:20;1002.26;;;20.88;60.90
48810;BME280;40070;47.322;18.784;2022-08-02T03:58:22;1002.28;;;21.01;60.63
48810;BME280;40070;47.322;18.784;2022-08-02T04:00:23;1002.35;;;21.11;60.28
48810;BME280;40070;47.322;18.784;2022-08-02T04:02:24;1002.37;;;21.21;59.85
48810;BME280;40070;47.322;18.784;2022-08-02T04:04:25;1002.42;;;21.10;60.14
48810;BME280;40070;47.322;18.784;2022-08-02T04:06:26;1002.38;;;21.05;60.35
48810;BME280;40070;47.322;18.784;2022-08-02T04:08:27;1002.37;;;20.90;60.77
48810;BME280;40070;47.322;18.784;2022-08-02T04:10:28;1002.40;;;20.72;61.45
48810;BME280;40070;47.322;18.784;2022-08-02T04:12:29;1002.34;;;20.90;61.12
48810;BME280;40070;47.322;18.784;2022-08-02T04:14:30;1002.36;;;21.00;61.05
48810;BME280;40070;47.322;18.784;2022-08-02T04:16:41;1002.39;;;21.11;60.83
48810;BME280;40070;47.322;18.784;2022-08-02T04:18:45;1002.40;;;21.25;60.46
48810;BME280;40070;47.322;18.784;2022-08-02T04:20:49;1002.46;;;21.25;60.46
48810;BME280;40070;47.322;18.784;2022-08-02T04:22:59;1002.47;;;21.13;60.71
48810;BME280;40070;47.322;18.784;2022-08-02T04:25:02;1002.49;;;21.07;60.95
48810;BME280;40070;47.322;18.784;2022-08-02T04:27:04;1002.48;;;21.13;60.96
48810;BME280;40070;47.322;18.784;2022-08-02T04:29:07;1002.50;;;21.32;60.75
48810;BME280;40070;47.322;18.784;2022-08-02T04:31:08;1002.52;;;21.53;60.08
48810;BME280;40070;47.322;18.784;2022-08-02T04:33:10;1002.53;;;21.57;60.03
48810;BME280;40070;47.322;18.784;2022-08-02T04:35:12;1002.53;;;21.67;59.88
48810;BME280;40070;47.322;18.784;2022-08-02T04:37:13;1002.57;;;21.80;59.58
48810;BME280;40070;47.322;18.784;2022-08-02T04:39:14;1002.63;;;21.96;59.10
48810;BME280;40070;47.322;18.784;2022-08-02T04:41:16;1002.59;;;22.04;59.07
48810;BME280;40070;47.322;18.784;2022-08-02T04:43:17;1002.58;;;21.94;59.00
48810;BME280;40070;47.322;18.784;2022-08-02T04:45:18;1002.54;;;21.81;59.50
48810;BME280;40070;47.322;18.784;2022-08-02T04:47:19;1002.56;;;21.88;59.48
48810;BME280;40070;47.322;18.784;2022-08-02T04:49:21;1002.61;;;21.80;59.48
48810;BME280;40070;47.322;18.784;2022-08-02T04:51:22;1002.66;;;21.84;59.27
48810;BME280;40070;47.322;18.784;2022-08-02T04:53:23;1002.62;;;21.65;59.82
48810;BME280;40070;47.322;18.784;2022-08-02T04:55:24;1002.65;;;21.92;59.08
48810;BME280;40070;47.322;18.784;2022-08-02T04:57:25;1002.70;;;22.15;58.69
48810;BME280;40070;47.322;18.784;2022-08-02T04:59:26;1002.73;;;22.16;58.41
48810;BME280;40070;47.322;18.784;2022-08-02T05:01:27;1002.79;;;22.27;58.18
48810;BME280;40070;47.322;18.784;2022-08-02T05:03:28;1002.81;;;22.32;58.04
48810;BME280;40070;47.322;18.784;2022-08-02T05:05:29;1002.82;;;22.31;58.20
48810;BME280;40070;47.322;18.784;2022-08-02T05:07:30;1002.83;;;22.28;58.38
48810;BME280;40070;47.322;18.784;2022-08-02T05:09:31;1002.87;;;22.24;58.83
48810;BME280;40070;47.322;18.784;2022-08-02T05:11:32;1002.86;;;22.42;58.12
48810;BME280;40070;47.322;18.784;2022-08-02T05:13:33;1002.85;;;22.47;57.96
48810;BME280;40070;47.322;18.784;2022-08-02T05:15:34;1002.81;;;22.44;57.98
48810;BME280;40070;47.322;18.784;2022-08-02T05:17:35;1002.84;;;22.64;57.67
48810;BME280;40070;47.322;18.784;2022-08-02T05:19:35;1002.89;;;22.94;57.26
48810;BME280;40070;47.322;18.784;2022-08-02T05:21:36;1002.85;;;23.17;56.40
48810;BME280;40070;47.322;18.784;2022-08-02T05:23:37;1002.91;;;23.47;55.22
48810;BME280;40070;47.322;18.784;2022-08-02T05:25:38;1002.92;;;23.49;55.12
48810;BME280;40070;47.322;18.784;2022-08-02T05:27:39;1002.95;;;23.63;55.01
48810;BME280;40070;47.322;18.784;2022-08-02T05:29:41;1002.98;;;23.68;54.55
48810;BME280;40070;47.322;18.784;2022-08-02T05:31:41;1003.00;;;23.93;54.16
48810;BME280;40070;47.322;18.784;2022-08-02T05:33:42;1003.06;;;24.06;53.70
48810;BME280;40070;47.322;18.784;2022-08-02T05:35:43;1003.09;;;24.23;53.07
48810;BME280;40070;47.322;18.784;2022-08-02T05:37:45;1003.09;;;24.33;52.72
48810;BME280;40070;47.322;18.784;2022-08-02T05:39:46;1003.10;;;24.42;52.33
48810;BME280;40070;47.322;18.784;2022-08-02T05:41:47;1003.08;;;24.17;52.57
48810;BME280;40070;47.322;18.784;2022-08-02T05:43:48;1003.08;;;24.06;52.97
48810;BME280;40070;47.322;18.784;2022-08-02T05:45:49;1003.14;;;24.39;52.40
48810;BME280;40070;47.322;18.784;2022-08-02T05:47:50;1003.15;;;24.62;52.35
48810;BME280;40070;47.322;18.784;2022-08-02T05:49:51;1003.15;;;24.71;51.97
48810;BME280;40070;47.322;18.784;2022-08-02T05:54:19;1003.10;;;24.99;50.91
48810;BME280;40070;47.322;18.784;2022-08-02T05:56:32;1003.13;;;25.11;50.46
48810;BME280;40070;47.322;18.784;2022-08-02T05:58:41;1003.14;;;25.22;50.25
48810;BME280;40070;47.322;18.784;2022-08-02T06:00:44;1003.14;;;25.37;50.32
48810;BME280;40070;47.322;18.784;2022-08-02T06:02:50;1003.12;;;25.49;49.84
48810;BME280;40070;47.322;18.784;2022-08-02T06:05:03;1003.03;;;25.51;49.64
48810;BME280;40070;47.322;18.784;2022-08-02T06:07:05;1002.98;;;25.70;49.17
48810;BME280;40070;47.322;18.784;2022-08-02T06:09:12;1002.97;;;25.76;49.07
48810;BME280;40070;47.322;18.784;2022-08-02T06:11:15;1003.05;;;25.67;49.62
48810;BME280;40070;47.322;18.784;2022-08-02T06:13:16;1003.03;;;25.63;49.44
48810;BME280;40070;47.322;18.784;2022-08-02T06:15:18;1003.10;;;25.77;49.34
48810;BME280;40070;47.322;18.784;2022-08-02T06:17:19;1003.07;;;25.97;48.61
48810;BME280;40070;47.322;18.784;2022-08-02T06:19:20;1003.14;;;25.92;48.67
48810;BME280;40070;47.322;18.784;2022-08-02T06:21:22;1003.11;;;26.13;48.29
48810;BME280;40070;47.322;18.784;2022-08-02T06:23:25;1003.12;;;26.19;47.99
48810;BME280;40070;47.322;18.784;2022-08-02T06:25:26;1003.15;;;26.33;47.42
48810;BME280;40070;47.322;18.784;2022-08-02T06:27:28;1003.16;;;26.33;47.27
48810;BME280;40070;47.322;18.784;2022-08-02T06:29:30;1003.13;;;26.37;47.31
48810;BME280;40070;47.322;18.784;2022-08-02T06:31:31;1003.15;;;26.56;47.13
48810;BME280;40070;47.322;18.784;2022-08-02T06:33:32;1003.15;;;26.70;46.71
48810;BME280;40070;47.322;18.784;2022-08-02T06:35:42;1003.15;;;26.91;46.08
48810;BME280;40070;47.322;18.784;2022-08-02T06:38:18;1003.19;;;27.19;45.58
48810;BME280;40070;47.322;18.784;2022-08-02T06:42:20;1003.15;;;27.11;44.79
48810;BME280;40070;47.322;18.784;2022-08-02T06:44:24;1003.18;;;27.18;44.51
48810;BME280;40070;47.322;18.784;2022-08-02T06:46:25;1003.16;;;27.40;44.17
48810;BME280;40070;47.322;18.784;2022-08-02T06:48:26;1003.14;;;27.51;43.92
48810;BME280;40070;47.322;18.784;2022-08-02T06:50:28;1003.14;;;27.35;44.01
48810;BME280;40070;47.322;18.784;2022-08-02T06:52:29;1003.14;;;27.24;44.01
48810;BME280;40070;47.322;18.784;2022-08-02T06:54:30;1003.08;;;27.37;43.62
48810;BME280;40070;47.322;18.784;2022-08-02T06:56:31;1003.07;;;27.56;43.22
48810;BME280;40070;47.322;18.784;2022-08-02T06:58:32;1003.09;;;27.66;42.79
48810;BME280;40070;47.322;18.784;2022-08-02T07:00:33;1003.11;;;27.44;43.11
48810;BME280;40070;47.322;18.784;2022-08-02T07:02:34;1003.09;;;27.66;43.03
48810;BME280;40070;47.322;18.784;2022-08-02T07:04:35;1003.08;;;27.74;43.01
48810;BME280;40070;47.322;18.784;2022-08-02T07:06:36;1003.11;;;27.79;42.92
48810;BME280;40070;47.322;18.784;2022-08-02T07:08:37;1003.08;;;27.87;42.11
48810;BME280;40070;47.322;18.784;2022-08-02T07:10:38;1003.08;;;27.86;42.42
48810;BME280;40070;47.322;18.784;2022-08-02T07:12:39;1003.04;;;27.83;42.08
48810;BME280;40070;47.322;18.784;2022-08-02T07:14:40;1002.98;;;28.25;41.38
48810;BME280;40070;47.322;18.784;2022-08-02T07:16:41;1002.97;;;28.21;41.16
48810;BME280;40070;47.322;18.784;2022-08-02T07:18:42;1002.97;;;28.31;41.31
48810;BME280;40070;47.322;18.784;2022-08-02T07:20:43;1002.95;;;28.32;41.39
48810;BME280;40070;47.322;18.784;2022-08-02T07:22:44;1002.91;;;28.27;40.78
48810;BME280;40070;47.322;18.784;2022-08-02T07:24:45;1002.95;;;28.59;40.32
48810;BME280;40070;47.322;18.784;2022-08-02T07:26:46;1002.92;;;28.63;40.21
48810;BME280;40070;47.322;18.784;2022-08-02T07:28:47;1002.94;;;28.86;39.60
48810;BME280;40070;47.322;18.784;2022-08-02T07:30:48;1002.91;;;28.80;39.81
48810;BME280;40070;47.322;18.784;2022-08-02T07:32:49;1002.90;;;28.89;39.53
48810;BME280;40070;47.322;18.784;2022-08-02T07:34:51;1002.89;;;28.99;39.43
48810;BME280;40070;47.322;18.784;2022-08-02T07:36:52;1002.89;;;29.21;38.38
48810;BME280;40070;47.322;18.784;2022-08-02T07:38:53;1002.88;;;29.52;37.41
48810;BME280;40070;47.322;18.784;2022-08-02T07:40:55;1002.89;;;29.46;37.25
48810;BME280;40070;47.322;18.784;2022-08-02T07:42:56;1002.91;;;29.38;37.21
48810;BME280;40070;47.322;18.784;2022-08-02T07:44:57;1002.88;;;29.26;37.09
48810;BME280;40070;47.322;18.784;2022-08-02T07:46:58;1002.89;;;29.49;37.06
48810;BME280;40070;47.322;18.784;2022-08-02T07:49:00;1002.88;;;29.52;37.37
48810;BME280;40070;47.322;18.784;2022-08-02T07:51:01;1002.87;;;29.44;36.97
48810;BME280;40070;47.322;18.784;2022-08-02T07:53:02;1002.91;;;29.62;37.04
48810;BME280;40070;47.322;18.784;2022-08-02T07:55:04;1002.87;;;29.38;37.37
48810;BME280;40070;47.322;18.784;2022-08-02T07:57:05;1002.83;;;29.72;37.23
48810;BME280;40070;47.322;18.784;2022-08-02T07:59:06;1002.82;;;29.72;36.45
48810;BME280;40070;47.322;18.784;2022-08-02T08:01:06;1002.84;;;30.22;35.99
48810;BME280;40070;47.322;18.784;2022-08-02T08:03:07;1002.84;;;30.31;35.82
48810;BME280;40070;47.322;18.784;2022-08-02T08:05:09;1002.90;;;30.38;35.15
48810;BME280;40070;47.322;18.784;2022-08-02T08:07:10;1002.92;;;30.55;34.25
48810;BME280;40070;47.322;18.784;2022-08-02T08:09:11;1002.96;;;29.94;34.93
48810;BME280;40070;47.322;18.784;2022-08-02T08:11:12;1002.99;;;30.27;34.49
48810;BME280;40070;47.322;18.784;2022-08-02T08:13:13;1003.00;;;30.39;34.27
48810;BME280;40070;47.322;18.784;2022-08-02T08:15:14;1002.97;;;30.36;34.77
48810;BME280;40070;47.322;18.784;2022-08-02T08:17:15;1003.00;;;30.46;34.53
48810;BME280;40070;47.322;18.784;2022-08-02T08:19:16;1002.96;;;30.28;34.73
48810;BME280;40070;47.322;18.784;2022-08-02T08:21:17;1002.94;;;30.34;34.33
48810;BME280;40070;47.322;18.784;2022-08-02T08:23:18;1002.97;;;30.70;33.99
48810;BME280;40070;47.322;18.784;2022-08-02T08:25:19;1002.95;;;30.94;33.07
48810;BME280;40070;47.322;18.784;2022-08-02T08:27:20;1002.91;;;30.85;33.80
48810;BME280;40070;47.322;18.784;2022-08-02T08:29:21;1002.95;;;31.14;33.38
48810;BME280;40070;47.322;18.784;2022-08-02T08:31:23;1002.92;;;31.25;33.39
48810;BME280;40070;47.322;18.784;2022-08-02T08:33:24;1002.96;;;31.51;33.25
48810;BME280;40070;47.322;18.784;2022-08-02T08:35:25;1002.95;;;31.59;33.12
48810;BME280;40070;47.322;18.784;2022-08-02T08:37:25;1002.97;;;31.18;32.59
48810;BME280;40070;47.322;18.784;2022-08-02T08:39:27;1003.02;;;31.17;32.53
48810;BME280;40070;47.322;18.784;2022-08-02T08:41:27;1002.99;;;31.16;32.26
48810;BME280;40070;47.322;18.784;2022-08-02T08:43:28;1002.98;;;31.35;31.94
48810;BME280;40070;47.322;18.784;2022-08-02T08:45:29;1003.01;;;31.33;32.08
48810;BME280;40070;47.322;18.784;2022-08-02T08:47:35;1003.01;;;31.35;32.40
48810;BME280;40070;47.322;18.784;2022-08-02T08:49:38;1003.07;;;31.47;32.23
48810;BME280;40070;47.322;18.784;2022-08-02T08:51:40;1003.07;;;31.22;32.25
48810;BME280;40070;47.322;18.784;2022-08-02T08:53:42;1003.08;;;31.41;32.01
48810;BME280;40070;47.322;18.784;2022-08-02T08:55:43;1003.15;;;31.43;31.54
48810;BME280;40070;47.322;18.784;2022-08-02T08:57:45;1003.05;;;31.90;30.93
48810;BME280;40070;47.322;18.784;2022-08-02T08:59:46;1003.10;;;31.81;31.17
48810;BME280;40070;47.322;18.784;2022-08-02T09:01:47;1003.02;;;31.98;30.52
48810;BME280;40070;47.322;18.784;2022-08-02T09:03:49;1003.03;;;31.72;31.13
48810;BME280;40070;47.322;18.784;2022-08-02T09:05:50;1003.06;;;31.98;30.95
48810;BME280;40070;47.322;18.784;2022-08-02T09:07:51;1003.06;;;31.91;30.56
48810;BME280;40070;47.322;18.784;2022-08-02T09:09:52;1003.05;;;31.98;30.45
48810;BME280;40070;47.322;18.784;2022-08-02T09:11:53;1003.09;;;32.33;30.21
48810;BME280;40070;47.322;18.784;2022-08-02T09:13:55;1003.06;;;32.21;30.13
48810;BME280;40070;47.322;18.784;2022-08-02T09:15:57;1003.05;;;32.48;29.73
48810;BME280;40070;47.322;18.784;2022-08-02T09:17:59;1003.08;;;32.23;29.19
48810;BME280;40070;47.322;18.784;2022-08-02T09:20:06;1003.07;;;32.28;29.36
48810;BME280;40070;47.322;18.784;2022-08-02T09:22:09;1003.07;;;32.29;29.55
48810;BME280;40070;47.322;18.784;2022-08-02T09:24:16;1003.03;;;32.11;29.92
48810;BME280;40070;47.322;18.784;2022-08-02T09:26:19;1002.95;;;32.34;29.92
48810;BME280;40070;47.322;18.784;2022-08-02T09:28:20;1003.00;;;32.53;29.78
48810;BME280;40070;47.322;18.784;2022-08-02T09:30:21;1003.07;;;32.83;29.50
48810;BME280;40070;47.322;18.784;2022-08-02T09:32:22;1003.01;;;32.82;29.26
48810;BME280;40070;47.322;18.784;2022-08-02T09:34:23;1003.04;;;32.87;29.17
48810;BME280;40070;47.322;18.784;2022-08-02T09:36:43;1003.04;;;32.78;28.93
48810;BME280;40070;47.322;18.784;2022-08-02T09:38:51;1003.02;;;32.72;28.66
48810;BME280;40070;47.322;18.784;2022-08-02T09:40:53;1002.91;;;32.98;28.34
48810;BME280;40070;47.322;18.784;2022-08-02T09:42:57;1003.02;;;32.54;28.96
48810;BME280;40070;47.322;18.784;2022-08-02T09:44:59;1003.01;;;32.40;29.26
48810;BME280;40070;47.322;18.784;2022-08-02T09:47:00;1003.05;;;32.26;29.25
48810;BME280;40070;47.322;18.784;2022-08-02T09:49:13;1003.02;;;32.75;28.93
48810;BME280;40070;47.322;18.784;2022-08-02T09:51:18;1003.05;;;32.83;29.09
48810;BME280;40070;47.322;18.784;2022-08-02T09:53:20;1002.99;;;33.11;28.01
48810;BME280;40070;47.322;18.784;2022-08-02T09:55:21;1002.95;;;33.31;27.77
48810;BME280;40070;47.322;18.784;2022-08-02T09:57:26;1003.01;;;33.19;28.13
48810;BME280;40070;47.322;18.784;2022-08-02T09:59:27;1002.90;;;33.04;28.25
48810;BME280;40070;47.322;18.784;2022-08-02T10:01:32;1002.90;;;33.42;27.73
48810;BME280;40070;47.322;18.784;2022-08-02T10:03:33;1002.91;;;33.40;28.00
48810;BME280;40070;47.322;18.784;2022-08-02T10:05:47;1002.83;;;33.53;27.07
48810;BME280;40070;47.322;18.784;2022-08-02T10:07:48;1002.85;;;33.47;27.62
48810;BME280;40070;47.322;18.784;2022-08-02T10:09:50;1002.87;;;33.69;27.50
48810;BME280;40070;47.322;18.784;2022-08-02T10:11:51;1002.77;;;34.07;27.52
48810;BME280;40070;47.322;18.784;2022-08-02T10:13:53;1002.73;;;34.38;26.52
48810;BME280;40070;47.322;18.784;2022-08-02T10:15:54;1002.73;;;34.10;26.84
48810;BME280;40070;47.322;18.784;2022-08-02T10:17:56;1002.76;;;33.67;27.44
48810;BME280;40070;47.322;18.784;2022-08-02T10:19:56;1002.77;;;32.96;28.15
48810;BME280;40070;47.322;18.784;2022-08-02T10:22:01;1002.73;;;33.07;28.13
48810;BME280;40070;47.322;18.784;2022-08-02T10:24:05;1002.71;;;33.35;28.12
48810;BME280;40070;47.322;18.784;2022-08-02T10:26:06;1002.68;;;33.53;28.11
48810;BME280;40070;47.322;18.784;2022-08-02T10:28:07;1002.61;;;33.63;27.60
48810;BME280;40070;47.322;18.784;2022-08-02T10:30:09;1002.64;;;34.04;27.63
48810;BME280;40070;47.322;18.784;2022-08-02T10:32:28;1002.56;;;34.30;27.00
48810;BME280;40070;47.322;18.784;2022-08-02T10:34:27;1002.64;;;34.25;26.81
48810;BME280;40070;47.322;18.784;2022-08-02T10:36:30;1002.61;;;33.83;27.19
48810;BME280;40070;47.322;18.784;2022-08-02T10:38:32;1002.62;;;33.78;27.37
48810;BME280;40070;47.322;18.784;2022-08-02T10:40:43;1002.58;;;33.72;27.43
48810;BME280;40070;47.322;18.784;2022-08-02T10:42:45;1002.60;;;34.36;26.62
48810;BME280;40070;47.322;18.784;2022-08-02T10:44:47;1002.65;;;34.12;26.75
48810;BME280;40070;47.322;18.784;2022-08-02T10:46:48;1002.60;;;34.29;26.37
48810;BME280;40070;47.322;18.784;2022-08-02T10:49:14;1002.62;;;34.12;26.59
48810;BME280;40070;47.322;18.784;2022-08-02T10:51:15;1002.51;;;34.25;26.75
48810;BME280;40070;47.322;18.784;2022-08-02T10:53:26;1002.55;;;34.64;26.26
48810;BME280;40070;47.322;18.784;2022-08-02T10:55:27;1002.55;;;34.05;26.74
48810;BME280;40070;47.322;18.784;2022-08-02T10:57:40;1002.54;;;33.98;26.69
48810;BME280;40070;47.322;18.784;2022-08-02T10:59:41;1002.53;;;34.03;27.27